sensor_id;sensor_type;location;lat;lon;timestamp;P1;durP1;ratioP1;P2;durP2;ratioP2
16826;SDS011;8530;49.540;8.576;2022-10-16T00:01:06;10.97;;;4.40;;
16826;SDS011;8530;49.540;8.576;2022-10-16T00:03:34;3.73;;;3.43;;
16826;SDS011;8530;49.540;8.576;2022-10-16T00:06:01;5.90;;;3.50;;
16826;SDS011;8530;49.540;8.576;2022-10-16T00:08:29;5.27;;;3.20;;
16826;SDS011;8530;49.540;8.576;2022-10-16T00:11:00;9.00;;;4.30;;
16826;SDS011;8530;49.540;8.576;2022-10-16T00:13:29;4.30;;;3.80;;
16826;SDS011;8530;49.540;8.576;2022-10-16T00:15:58;7.93;;;3.57;;
16826;SDS011;8530;49.540;8.576;2022-10-16T00:18:26;5.57;;;3.77;;
16826;SDS011;8530;49.540;8.576;2022-10-16T00:20:53;5.20;;;4.10;;
16826;SDS011;8530;49.540;8.576;2022-10-16T00:23:20;6.03;;;3.87;;
16826;SDS011;8530;49.540;8.576;2022-10-16T00:25:54;8.47;;;4.37;;
16826;SDS011;8530;49.540;8.576;2022-10-16T00:28:22;11.20;;;4.47;;
16826;SDS011;8530;49.540;8.576;2022-10-16T00:30:50;5.47;;;4.47;;
16826;SDS011;8530;49.540;8.576;2022-10-16T00:33:17;4.87;;;3.60;;
16826;SDS011;8530;49.540;8.576;2022-10-16T00:35:45;3.87;;;3.30;;
16826;SDS011;8530;49.540;8.576;2022-10-16T00:38:11;13.40;;;4.60;;
16826;SDS011;8530;49.540;8.576;2022-10-16T00:40:38;10.50;;;3.87;;
16826;SDS011;8530;49.540;8.576;2022-10-16T00:43:09;4.80;;;3.70;;
16826;SDS011;8530;49.540;8.576;2022-10-16T00:45:39;5.43;;;3.37;;
16826;SDS011;8530;49.540;8.576;2022-10-16T00:48:07;7.17;;;3.43;;
16826;SDS011;8530;49.540;8.576;2022-10-16T00:50:38;5.37;;;3.17;;
16826;SDS011;8530;49.540;8.576;2022-10-16T00:53:08;5.23;;;3.30;;
16826;SDS011;8530;49.540;8.576;2022-10-16T00:55:36;12.60;;;4.23;;
16826;SDS011;8530;49.540;8.576;2022-10-16T00:58:02;4.07;;;3.50;;
16826;SDS011;8530;49.540;8.576;2022-10-16T01:00:29;8.80;;;4.07;;
16826;SDS011;8530;49.540;8.576;2022-10-16T01:02:57;4.73;;;3.50;;
16826;SDS011;8530;49.540;8.576;2022-10-16T01:05:28;4.97;;;3.70;;
16826;SDS011;8530;49.540;8.576;2022-10-16T01:08:01;10.20;;;4.47;;
16826;SDS011;8530;49.540;8.576;2022-10-16T01:10:37;5.57;;;3.80;;
16826;SDS011;8530;49.540;8.576;2022-10-16T01:13:07;6.27;;;4.00;;
16826;SDS011;8530;49.540;8.576;2022-10-16T01:15:39;11.73;;;3.73;;
16826;SDS011;8530;49.540;8.576;2022-10-16T01:18:14;9.07;;;4.10;;
16826;SDS011;8530;49.540;8.576;2022-10-16T01:20:46;3.87;;;3.17;;
16826;SDS011;8530;49.540;8.576;2022-10-16T01:23:21;3.47;;;3.17;;
16826;SDS011;8530;49.540;8.576;2022-10-16T01:26:02;16.97;;;3.60;;
16826;SDS011;8530;49.540;8.576;2022-10-16T01:28:41;4.43;;;3.77;;
16826;SDS011;8530;49.540;8.576;2022-10-16T01:31:16;7.47;;;4.10;;
16826;SDS011;8530;49.540;8.576;2022-10-16T01:33:46;16.67;;;5.37;;
16826;SDS011;8530;49.540;8.576;2022-10-16T01:36:23;9.93;;;3.63;;
16826;SDS011;8530;49.540;8.576;2022-10-16T01:38:52;5.60;;;3.80;;
16826;SDS011;8530;49.540;8.576;2022-10-16T01:41:22;5.40;;;3.57;;
16826;SDS011;8530;49.540;8.576;2022-10-16T01:43:56;5.07;;;2.57;;
16826;SDS011;8530;49.540;8.576;2022-10-16T01:46:27;6.53;;;2.90;;
16826;SDS011;8530;49.540;8.576;2022-10-16T01:48:56;3.40;;;3.10;;
16826;SDS011;8530;49.540;8.576;2022-10-16T01:51:25;11.30;;;3.20;;
16826;SDS011;8530;49.540;8.576;2022-10-16T01:53:54;4.37;;;3.47;;
16826;SDS011;8530;49.540;8.576;2022-10-16T01:56:24;4.70;;;3.60;;
16826;SDS011;8530;49.540;8.576;2022-10-16T01:58:53;5.37;;;3.07;;
16826;SDS011;8530;49.540;8.576;2022-10-16T02:01:25;4.60;;;2.93;;
16826;SDS011;8530;49.540;8.576;2022-10-16T02:03:55;3.13;;;2.80;;
16826;SDS011;8530;49.540;8.576;2022-10-16T02:06:26;3.13;;;2.60;;
16826;SDS011;8530;49.540;8.576;2022-10-16T02:08:54;2.70;;;2.50;;
16826;SDS011;8530;49.540;8.576;2022-10-16T02:11:21;5.03;;;3.03;;
16826;SDS011;8530;49.540;8.576;2022-10-16T02:13:50;6.30;;;2.53;;
16826;SDS011;8530;49.540;8.576;2022-10-16T02:16:23;4.07;;;3.40;;
16826;SDS011;8530;49.540;8.576;2022-10-16T02:18:59;3.70;;;3.10;;
16826;SDS011;8530;49.540;8.576;2022-10-16T02:21:26;8.10;;;4.30;;
16826;SDS011;8530;49.540;8.576;2022-10-16T02:23:59;8.23;;;3.60;;
16826;SDS011;8530;49.540;8.576;2022-10-16T02:26:31;6.80;;;3.63;;
16826;SDS011;8530;49.540;8.576;2022-10-16T02:29:02;5.30;;;3.50;;
16826;SDS011;8530;49.540;8.576;2022-10-16T02:31:35;6.20;;;3.90;;
16826;SDS011;8530;49.540;8.576;2022-10-16T02:34:07;3.83;;;3.07;;
16826;SDS011;8530;49.540;8.576;2022-10-16T02:36:36;8.70;;;3.53;;
16826;SDS011;8530;49.540;8.576;2022-10-16T02:39:04;3.77;;;3.37;;
16826;SDS011;8530;49.540;8.576;2022-10-16T02:41:32;4.70;;;3.63;;
16826;SDS011;8530;49.540;8.576;2022-10-16T02:43:59;5.50;;;3.17;;
16826;SDS011;8530;49.540;8.576;2022-10-16T02:46:26;7.30;;;3.73;;
16826;SDS011;8530;49.540;8.576;2022-10-16T02:48:54;6.47;;;3.33;;
16826;SDS011;8530;49.540;8.576;2022-10-16T02:53:49;5.07;;;3.10;;
16826;SDS011;8530;49.540;8.576;2022-10-16T02:56:15;5.27;;;2.87;;
16826;SDS011;8530;49.540;8.576;2022-10-16T02:58:42;6.60;;;4.17;;
16826;SDS011;8530;49.540;8.576;2022-10-16T03:01:09;9.00;;;3.67;;
16826;SDS011;8530;49.540;8.576;2022-10-16T03:03:37;3.57;;;3.00;;
16826;SDS011;8530;49.540;8.576;2022-10-16T03:06:06;4.70;;;3.23;;
16826;SDS011;8530;49.540;8.576;2022-10-16T03:08:32;6.80;;;3.13;;
16826;SDS011;8530;49.540;8.576;2022-10-16T03:10:59;2.50;;;2.30;;
16826;SDS011;8530;49.540;8.576;2022-10-16T03:13:26;7.37;;;2.73;;
16826;SDS011;8530;49.540;8.576;2022-10-16T03:15:53;6.47;;;3.30;;
16826;SDS011;8530;49.540;8.576;2022-10-16T03:18:20;4.80;;;2.93;;
16826;SDS011;8530;49.540;8.576;2022-10-16T03:20:47;6.80;;;3.80;;
16826;SDS011;8530;49.540;8.576;2022-10-16T03:23:15;5.03;;;3.33;;
16826;SDS011;8530;49.540;8.576;2022-10-16T03:25:42;3.30;;;3.00;;
16826;SDS011;8530;49.540;8.576;2022-10-16T03:28:08;5.80;;;3.43;;
16826;SDS011;8530;49.540;8.576;2022-10-16T03:30:35;6.00;;;2.90;;
16826;SDS011;8530;49.540;8.576;2022-10-16T03:33:04;4.10;;;2.70;;
16826;SDS011;8530;49.540;8.576;2022-10-16T03:35:31;4.37;;;3.40;;
16826;SDS011;8530;49.540;8.576;2022-10-16T03:37:58;2.93;;;2.63;;
16826;SDS011;8530;49.540;8.576;2022-10-16T03:40:26;3.67;;;3.23;;
16826;SDS011;8530;49.540;8.576;2022-10-16T03:42:53;9.13;;;4.20;;
16826;SDS011;8530;49.540;8.576;2022-10-16T03:45:22;5.20;;;2.90;;
16826;SDS011;8530;49.540;8.576;2022-10-16T03:47:49;2.80;;;2.60;;
16826;SDS011;8530;49.540;8.576;2022-10-16T03:50:15;7.10;;;2.90;;
16826;SDS011;8530;49.540;8.576;2022-10-16T03:52:42;4.37;;;3.40;;
16826;SDS011;8530;49.540;8.576;2022-10-16T03:55:09;5.67;;;3.40;;
16826;SDS011;8530;49.540;8.576;2022-10-16T03:57:37;3.40;;;2.80;;
16826;SDS011;8530;49.540;8.576;2022-10-16T04:00:04;2.90;;;2.70;;
16826;SDS011;8530;49.540;8.576;2022-10-16T04:02:32;8.33;;;2.83;;
16826;SDS011;8530;49.540;8.576;2022-10-16T04:04:58;3.80;;;2.77;;
16826;SDS011;8530;49.540;8.576;2022-10-16T04:07:25;3.80;;;2.50;;
16826;SDS011;8530;49.540;8.576;2022-10-16T04:09:52;7.80;;;3.40;;
16826;SDS011;8530;49.540;8.576;2022-10-16T04:12:19;4.13;;;3.20;;
16826;SDS011;8530;49.540;8.576;2022-10-16T04:14:47;4.73;;;2.50;;
16826;SDS011;8530;49.540;8.576;2022-10-16T04:17:14;3.23;;;2.93;;
16826;SDS011;8530;49.540;8.576;2022-10-16T04:19:40;9.97;;;3.10;;
16826;SDS011;8530;49.540;8.576;2022-10-16T04:22:07;4.60;;;3.57;;
16826;SDS011;8530;49.540;8.576;2022-10-16T04:24:34;6.70;;;3.73;;
16826;SDS011;8530;49.540;8.576;2022-10-16T04:27:01;14.83;;;3.93;;
16826;SDS011;8530;49.540;8.576;2022-10-16T04:29:28;4.80;;;4.23;;
16826;SDS011;8530;49.540;8.576;2022-10-16T04:31:56;10.00;;;3.87;;
16826;SDS011;8530;49.540;8.576;2022-10-16T04:34:23;5.07;;;3.57;;
16826;SDS011;8530;49.540;8.576;2022-10-16T04:36:49;5.60;;;3.13;;
16826;SDS011;8530;49.540;8.576;2022-10-16T04:39:16;3.07;;;2.77;;
16826;SDS011;8530;49.540;8.576;2022-10-16T04:41:43;4.33;;;2.90;;
16826;SDS011;8530;49.540;8.576;2022-10-16T04:44:10;4.00;;;3.40;;
16826;SDS011;8530;49.540;8.576;2022-10-16T04:46:38;6.80;;;4.53;;
16826;SDS011;8530;49.540;8.576;2022-10-16T04:49:10;3.60;;;3.20;;
16826;SDS011;8530;49.540;8.576;2022-10-16T04:51:37;4.47;;;2.77;;
16826;SDS011;8530;49.540;8.576;2022-10-16T04:54:04;6.80;;;2.50;;
16826;SDS011;8530;49.540;8.576;2022-10-16T04:56:31;4.07;;;2.50;;
16826;SDS011;8530;49.540;8.576;2022-10-16T04:58:57;6.83;;;3.60;;
16826;SDS011;8530;49.540;8.576;2022-10-16T05:01:24;5.37;;;2.80;;
16826;SDS011;8530;49.540;8.576;2022-10-16T05:03:51;5.00;;;3.10;;
16826;SDS011;8530;49.540;8.576;2022-10-16T05:06:19;3.53;;;3.20;;
16826;SDS011;8530;49.540;8.576;2022-10-16T05:08:46;4.40;;;3.50;;
16826;SDS011;8530;49.540;8.576;2022-10-16T05:11:13;8.97;;;2.70;;
16826;SDS011;8530;49.540;8.576;2022-10-16T05:13:40;3.40;;;3.07;;
16826;SDS011;8530;49.540;8.576;2022-10-16T05:16:06;7.30;;;3.47;;
16826;SDS011;8530;49.540;8.576;2022-10-16T05:18:33;4.67;;;3.27;;
16826;SDS011;8530;49.540;8.576;2022-10-16T05:21:00;2.80;;;2.60;;
16826;SDS011;8530;49.540;8.576;2022-10-16T05:23:28;3.73;;;2.73;;
16826;SDS011;8530;49.540;8.576;2022-10-16T05:25:55;3.70;;;2.50;;
16826;SDS011;8530;49.540;8.576;2022-10-16T05:28:23;3.00;;;2.70;;
16826;SDS011;8530;49.540;8.576;2022-10-16T05:30:50;7.03;;;2.80;;
16826;SDS011;8530;49.540;8.576;2022-10-16T05:33:19;11.60;;;3.97;;
16826;SDS011;8530;49.540;8.576;2022-10-16T05:35:46;5.03;;;3.10;;
16826;SDS011;8530;49.540;8.576;2022-10-16T05:38:13;4.30;;;3.30;;
16826;SDS011;8530;49.540;8.576;2022-10-16T05:40:41;6.60;;;3.37;;
16826;SDS011;8530;49.540;8.576;2022-10-16T05:43:08;3.70;;;3.33;;
16826;SDS011;8530;49.540;8.576;2022-10-16T05:45:35;5.47;;;3.37;;
16826;SDS011;8530;49.540;8.576;2022-10-16T05:48:01;3.03;;;2.70;;
16826;SDS011;8530;49.540;8.576;2022-10-16T05:50:28;2.77;;;2.57;;
16826;SDS011;8530;49.540;8.576;2022-10-16T05:52:55;3.30;;;3.00;;
16826;SDS011;8530;49.540;8.576;2022-10-16T05:55:23;3.07;;;2.50;;
16826;SDS011;8530;49.540;8.576;2022-10-16T05:57:53;3.53;;;2.60;;
16826;SDS011;8530;49.540;8.576;2022-10-16T06:00:20;5.00;;;2.70;;
16826;SDS011;8530;49.540;8.576;2022-10-16T06:02:49;2.60;;;2.40;;
16826;SDS011;8530;49.540;8.576;2022-10-16T06:05:16;3.57;;;2.87;;
16826;SDS011;8530;49.540;8.576;2022-10-16T06:07:42;4.40;;;2.20;;
16826;SDS011;8530;49.540;8.576;2022-10-16T06:10:09;5.00;;;2.67;;
16826;SDS011;8530;49.540;8.576;2022-10-16T06:12:36;4.77;;;2.87;;
16826;SDS011;8530;49.540;8.576;2022-10-16T06:15:05;3.03;;;2.20;;
16826;SDS011;8530;49.540;8.576;2022-10-16T06:17:32;2.10;;;1.90;;
16826;SDS011;8530;49.540;8.576;2022-10-16T06:19:58;5.17;;;2.80;;
16826;SDS011;8530;49.540;8.576;2022-10-16T06:22:25;5.07;;;3.53;;
16826;SDS011;8530;49.540;8.576;2022-10-16T06:24:52;5.10;;;3.43;;
16826;SDS011;8530;49.540;8.576;2022-10-16T06:27:19;4.73;;;4.23;;
16826;SDS011;8530;49.540;8.576;2022-10-16T06:29:45;7.83;;;3.70;;
16826;SDS011;8530;49.540;8.576;2022-10-16T06:32:14;3.50;;;3.07;;
16826;SDS011;8530;49.540;8.576;2022-10-16T06:34:40;5.00;;;3.30;;
16826;SDS011;8530;49.540;8.576;2022-10-16T06:37:07;6.90;;;3.33;;
16826;SDS011;8530;49.540;8.576;2022-10-16T06:39:34;4.93;;;2.77;;
16826;SDS011;8530;49.540;8.576;2022-10-16T06:42:00;4.30;;;2.93;;
16826;SDS011;8530;49.540;8.576;2022-10-16T06:44:27;4.80;;;3.97;;
16826;SDS011;8530;49.540;8.576;2022-10-16T06:46:54;7.57;;;3.83;;
16826;SDS011;8530;49.540;8.576;2022-10-16T06:49:22;8.60;;;2.87;;
16826;SDS011;8530;49.540;8.576;2022-10-16T06:51:49;4.10;;;3.40;;
16826;SDS011;8530;49.540;8.576;2022-10-16T06:54:16;7.20;;;3.53;;
16826;SDS011;8530;49.540;8.576;2022-10-16T06:56:43;6.50;;;3.73;;
16826;SDS011;8530;49.540;8.576;2022-10-16T06:59:10;4.97;;;2.70;;
16826;SDS011;8530;49.540;8.576;2022-10-16T07:01:38;7.43;;;3.30;;
16826;SDS011;8530;49.540;8.576;2022-10-16T07:04:05;4.83;;;3.67;;
16826;SDS011;8530;49.540;8.576;2022-10-16T07:06:33;11.30;;;3.50;;
16826;SDS011;8530;49.540;8.576;2022-10-16T07:09:02;7.67;;;4.40;;
16826;SDS011;8530;49.540;8.576;2022-10-16T07:11:32;10.00;;;4.73;;
16826;SDS011;8530;49.540;8.576;2022-10-16T07:14:00;3.87;;;3.10;;
16826;SDS011;8530;49.540;8.576;2022-10-16T07:16:31;3.27;;;2.60;;
16826;SDS011;8530;49.540;8.576;2022-10-16T07:19:02;5.03;;;3.67;;
16826;SDS011;8530;49.540;8.576;2022-10-16T07:21:30;4.67;;;3.40;;
16826;SDS011;8530;49.540;8.576;2022-10-16T07:24:01;6.47;;;3.50;;
16826;SDS011;8530;49.540;8.576;2022-10-16T07:26:30;7.83;;;3.90;;
16826;SDS011;8530;49.540;8.576;2022-10-16T07:28:58;3.40;;;2.83;;
16826;SDS011;8530;49.540;8.576;2022-10-16T07:31:25;4.13;;;3.00;;
16826;SDS011;8530;49.540;8.576;2022-10-16T07:33:53;2.97;;;2.63;;
16826;SDS011;8530;49.540;8.576;2022-10-16T07:36:21;3.53;;;2.63;;
16826;SDS011;8530;49.540;8.576;2022-10-16T07:38:48;5.57;;;3.03;;
16826;SDS011;8530;49.540;8.576;2022-10-16T07:41:16;4.17;;;2.80;;
16826;SDS011;8530;49.540;8.576;2022-10-16T07:43:45;4.80;;;3.50;;
16826;SDS011;8530;49.540;8.576;2022-10-16T07:46:12;3.23;;;2.00;;
16826;SDS011;8530;49.540;8.576;2022-10-16T07:48:39;4.70;;;2.40;;
16826;SDS011;8530;49.540;8.576;2022-10-16T07:51:06;3.00;;;2.80;;
16826;SDS011;8530;49.540;8.576;2022-10-16T07:53:33;4.90;;;2.70;;
16826;SDS011;8530;49.540;8.576;2022-10-16T07:56:01;3.73;;;3.07;;
16826;SDS011;8530;49.540;8.576;2022-10-16T07:58:31;11.50;;;3.40;;
16826;SDS011;8530;49.540;8.576;2022-10-16T08:00:58;5.00;;;4.07;;
16826;SDS011;8530;49.540;8.576;2022-10-16T08:03:28;11.20;;;4.90;;
16826;SDS011;8530;49.540;8.576;2022-10-16T08:05:56;3.53;;;2.93;;
16826;SDS011;8530;49.540;8.576;2022-10-16T08:08:23;6.63;;;3.37;;
16826;SDS011;8530;49.540;8.576;2022-10-16T08:10:50;8.73;;;3.30;;
16826;SDS011;8530;49.540;8.576;2022-10-16T08:13:16;5.43;;;3.17;;
16826;SDS011;8530;49.540;8.576;2022-10-16T08:15:45;6.47;;;4.03;;
16826;SDS011;8530;49.540;8.576;2022-10-16T08:18:13;4.70;;;3.67;;
16826;SDS011;8530;49.540;8.576;2022-10-16T08:20:41;4.13;;;3.27;;
16826;SDS011;8530;49.540;8.576;2022-10-16T08:23:08;10.50;;;3.70;;
16826;SDS011;8530;49.540;8.576;2022-10-16T08:25:38;7.73;;;5.17;;
16826;SDS011;8530;49.540;8.576;2022-10-16T08:28:05;3.80;;;3.13;;
16826;SDS011;8530;49.540;8.576;2022-10-16T08:30:34;7.73;;;4.13;;
16826;SDS011;8530;49.540;8.576;2022-10-16T08:33:02;6.07;;;3.20;;
16826;SDS011;8530;49.540;8.576;2022-10-16T08:35:29;4.57;;;3.33;;
16826;SDS011;8530;49.540;8.576;2022-10-16T08:37:56;4.57;;;3.10;;
16826;SDS011;8530;49.540;8.576;2022-10-16T08:40:28;4.43;;;2.70;;
16826;SDS011;8530;49.540;8.576;2022-10-16T08:43:04;6.33;;;3.77;;
16826;SDS011;8530;49.540;8.576;2022-10-16T08:46:09;3.03;;;2.60;;
16826;SDS011;8530;49.540;8.576;2022-10-16T08:48:47;6.60;;;2.87;;
16826;SDS011;8530;49.540;8.576;2022-10-16T08:51:18;12.80;;;4.20;;
16826;SDS011;8530;49.540;8.576;2022-10-16T08:53:49;8.63;;;4.50;;
16826;SDS011;8530;49.540;8.576;2022-10-16T08:56:18;7.37;;;4.13;;
16826;SDS011;8530;49.540;8.576;2022-10-16T08:58:45;4.23;;;2.67;;
16826;SDS011;8530;49.540;8.576;2022-10-16T09:01:13;6.53;;;1.80;;
16826;SDS011;8530;49.540;8.576;2022-10-16T09:03:45;3.07;;;1.60;;
16826;SDS011;8530;49.540;8.576;2022-10-16T09:06:31;2.60;;;2.00;;
16826;SDS011;8530;49.540;8.576;2022-10-16T09:09:13;2.73;;;2.43;;
16826;SDS011;8530;49.540;8.576;2022-10-16T09:11:50;7.63;;;2.73;;
16826;SDS011;8530;49.540;8.576;2022-10-16T09:14:25;5.83;;;2.40;;
16826;SDS011;8530;49.540;8.576;2022-10-16T09:17:06;5.53;;;3.00;;
16826;SDS011;8530;49.540;8.576;2022-10-16T09:19:51;7.10;;;3.47;;
16826;SDS011;8530;49.540;8.576;2022-10-16T09:22:24;5.13;;;3.60;;
16826;SDS011;8530;49.540;8.576;2022-10-16T09:24:53;6.80;;;3.77;;
16826;SDS011;8530;49.540;8.576;2022-10-16T09:27:21;5.07;;;3.27;;
16826;SDS011;8530;49.540;8.576;2022-10-16T09:29:48;4.30;;;2.93;;
16826;SDS011;8530;49.540;8.576;2022-10-16T09:32:15;6.90;;;3.73;;
16826;SDS011;8530;49.540;8.576;2022-10-16T09:34:46;4.40;;;3.60;;
16826;SDS011;8530;49.540;8.576;2022-10-16T09:37:19;11.30;;;3.20;;
16826;SDS011;8530;49.540;8.576;2022-10-16T09:39:48;4.13;;;2.50;;
16826;SDS011;8530;49.540;8.576;2022-10-16T09:42:16;6.70;;;4.80;;
16826;SDS011;8530;49.540;8.576;2022-10-16T09:44:47;4.20;;;3.40;;
16826;SDS011;8530;49.540;8.576;2022-10-16T09:47:16;9.30;;;3.13;;
16826;SDS011;8530;49.540;8.576;2022-10-16T09:49:51;2.63;;;2.20;;
16826;SDS011;8530;49.540;8.576;2022-10-16T09:52:21;3.43;;;2.70;;
16826;SDS011;8530;49.540;8.576;2022-10-16T09:54:49;3.67;;;3.03;;
16826;SDS011;8530;49.540;8.576;2022-10-16T09:57:17;8.60;;;2.70;;
16826;SDS011;8530;49.540;8.576;2022-10-16T09:59:45;8.23;;;3.17;;
16826;SDS011;8530;49.540;8.576;2022-10-16T10:02:14;26.00;;;13.70;;
16826;SDS011;8530;49.540;8.576;2022-10-16T10:04:44;42.20;;;23.37;;
16826;SDS011;8530;49.540;8.576;2022-10-16T10:07:20;18.73;;;11.20;;
16826;SDS011;8530;49.540;8.576;2022-10-16T10:09:52;9.27;;;4.70;;
16826;SDS011;8530;49.540;8.576;2022-10-16T10:12:21;10.50;;;5.57;;
16826;SDS011;8530;49.540;8.576;2022-10-16T10:14:50;13.60;;;5.07;;
16826;SDS011;8530;49.540;8.576;2022-10-16T10:17:19;4.20;;;3.10;;
16826;SDS011;8530;49.540;8.576;2022-10-16T10:19:51;5.03;;;3.33;;
16826;SDS011;8530;49.540;8.576;2022-10-16T10:22:28;5.67;;;3.03;;
16826;SDS011;8530;49.540;8.576;2022-10-16T10:25:07;4.10;;;2.93;;
16826;SDS011;8530;49.540;8.576;2022-10-16T10:27:45;5.53;;;3.20;;
16826;SDS011;8530;49.540;8.576;2022-10-16T10:30:25;3.87;;;2.73;;
16826;SDS011;8530;49.540;8.576;2022-10-16T10:33:03;8.30;;;3.27;;
16826;SDS011;8530;49.540;8.576;2022-10-16T10:35:40;4.40;;;3.63;;
16826;SDS011;8530;49.540;8.576;2022-10-16T10:38:19;10.27;;;2.90;;
16826;SDS011;8530;49.540;8.576;2022-10-16T10:40:55;3.43;;;2.83;;
16826;SDS011;8530;49.540;8.576;2022-10-16T10:43:33;5.13;;;3.93;;
16826;SDS011;8530;49.540;8.576;2022-10-16T10:46:09;5.43;;;3.83;;
16826;SDS011;8530;49.540;8.576;2022-10-16T10:48:47;10.77;;;4.00;;
16826;SDS011;8530;49.540;8.576;2022-10-16T10:51:27;5.90;;;2.80;;
16826;SDS011;8530;49.540;8.576;2022-10-16T10:54:01;3.90;;;3.30;;
16826;SDS011;8530;49.540;8.576;2022-10-16T10:56:45;3.27;;;2.73;;
16826;SDS011;8530;49.540;8.576;2022-10-16T11:02:32;10.83;;;6.23;;
16826;SDS011;8530;49.540;8.576;2022-10-16T11:07:52;8.97;;;5.40;;
16826;SDS011;8530;49.540;8.576;2022-10-16T11:10:26;6.87;;;4.63;;
16826;SDS011;8530;49.540;8.576;2022-10-16T11:12:57;5.37;;;2.90;;
16826;SDS011;8530;49.540;8.576;2022-10-16T11:15:31;4.07;;;2.60;;
16826;SDS011;8530;49.540;8.576;2022-10-16T11:18:03;3.20;;;2.07;;
16826;SDS011;8530;49.540;8.576;2022-10-16T11:20:34;5.77;;;2.10;;
16826;SDS011;8530;49.540;8.576;2022-10-16T11:23:06;4.10;;;2.47;;
16826;SDS011;8530;49.540;8.576;2022-10-16T11:25:40;3.03;;;2.60;;
16826;SDS011;8530;49.540;8.576;2022-10-16T11:28:10;3.80;;;2.93;;
16826;SDS011;8530;49.540;8.576;2022-10-16T11:30:41;6.87;;;2.80;;
16826;SDS011;8530;49.540;8.576;2022-10-16T11:33:20;6.00;;;2.07;;
16826;SDS011;8530;49.540;8.576;2022-10-16T11:35:59;2.63;;;2.13;;
16826;SDS011;8530;49.540;8.576;2022-10-16T11:38:30;6.53;;;2.93;;
16826;SDS011;8530;49.540;8.576;2022-10-16T11:41:15;5.50;;;3.10;;
16826;SDS011;8530;49.540;8.576;2022-10-16T11:43:49;3.53;;;3.00;;
16826;SDS011;8530;49.540;8.576;2022-10-16T11:46:24;5.20;;;2.67;;
16826;SDS011;8530;49.540;8.576;2022-10-16T11:48:54;3.87;;;2.37;;
16826;SDS011;8530;49.540;8.576;2022-10-16T11:51:29;4.77;;;2.53;;
16826;SDS011;8530;49.540;8.576;2022-10-16T11:54:01;4.03;;;2.20;;
16826;SDS011;8530;49.540;8.576;2022-10-16T11:56:37;7.27;;;2.53;;
16826;SDS011;8530;49.540;8.576;2022-10-16T11:59:07;6.13;;;2.40;;
16826;SDS011;8530;49.540;8.576;2022-10-16T12:01:44;7.20;;;3.63;;
16826;SDS011;8530;49.540;8.576;2022-10-16T12:04:18;9.27;;;4.37;;
16826;SDS011;8530;49.540;8.576;2022-10-16T12:06:50;8.40;;;3.30;;
16826;SDS011;8530;49.540;8.576;2022-10-16T12:09:24;8.63;;;2.60;;
16826;SDS011;8530;49.540;8.576;2022-10-16T12:11:56;4.60;;;2.83;;
16826;SDS011;8530;49.540;8.576;2022-10-16T12:14:34;3.60;;;2.60;;
16826;SDS011;8530;49.540;8.576;2022-10-16T12:17:03;3.47;;;2.67;;
16826;SDS011;8530;49.540;8.576;2022-10-16T12:19:57;5.53;;;2.50;;
16826;SDS011;8530;49.540;8.576;2022-10-16T12:22:27;3.60;;;2.77;;
16826;SDS011;8530;49.540;8.576;2022-10-16T12:24:56;3.50;;;2.10;;
16826;SDS011;8530;49.540;8.576;2022-10-16T12:27:27;5.80;;;2.80;;
16826;SDS011;8530;49.540;8.576;2022-10-16T12:29:58;6.43;;;3.13;;
16826;SDS011;8530;49.540;8.576;2022-10-16T12:32:30;4.53;;;2.97;;
16826;SDS011;8530;49.540;8.576;2022-10-16T12:34:59;4.00;;;2.87;;
16826;SDS011;8530;49.540;8.576;2022-10-16T12:37:29;6.00;;;3.27;;
16826;SDS011;8530;49.540;8.576;2022-10-16T12:39:59;6.30;;;2.47;;
16826;SDS011;8530;49.540;8.576;2022-10-16T12:42:38;5.77;;;3.00;;
16826;SDS011;8530;49.540;8.576;2022-10-16T12:45:21;5.13;;;2.30;;
16826;SDS011;8530;49.540;8.576;2022-10-16T12:47:51;5.60;;;2.57;;
16826;SDS011;8530;49.540;8.576;2022-10-16T12:50:23;4.07;;;3.00;;
16826;SDS011;8530;49.540;8.576;2022-10-16T12:52:56;5.10;;;3.80;;
16826;SDS011;8530;49.540;8.576;2022-10-16T12:55:23;6.00;;;4.30;;
16826;SDS011;8530;49.540;8.576;2022-10-16T13:00:50;9.43;;;5.20;;
16826;SDS011;8530;49.540;8.576;2022-10-16T13:03:25;5.33;;;2.30;;
16826;SDS011;8530;49.540;8.576;2022-10-16T13:06:14;2.93;;;2.63;;
16826;SDS011;8530;49.540;8.576;2022-10-16T13:09:02;7.23;;;3.67;;
16826;SDS011;8530;49.540;8.576;2022-10-16T13:11:47;6.10;;;3.90;;
16826;SDS011;8530;49.540;8.576;2022-10-16T13:14:39;2.70;;;2.50;;
16826;SDS011;8530;49.540;8.576;2022-10-16T13:17:28;9.03;;;3.70;;
16826;SDS011;8530;49.540;8.576;2022-10-16T13:20:03;9.13;;;5.10;;
16826;SDS011;8530;49.540;8.576;2022-10-16T13:22:39;6.70;;;4.40;;
16826;SDS011;8530;49.540;8.576;2022-10-16T13:25:17;5.00;;;3.53;;
16826;SDS011;8530;49.540;8.576;2022-10-16T13:27:52;5.63;;;3.47;;
16826;SDS011;8530;49.540;8.576;2022-10-16T13:30:24;5.83;;;3.70;;
16826;SDS011;8530;49.540;8.576;2022-10-16T13:32:55;5.00;;;3.00;;
16826;SDS011;8530;49.540;8.576;2022-10-16T13:35:27;10.67;;;3.90;;
16826;SDS011;8530;49.540;8.576;2022-10-16T13:38:05;3.50;;;2.33;;
16826;SDS011;8530;49.540;8.576;2022-10-16T13:40:47;2.83;;;2.50;;
16826;SDS011;8530;49.540;8.576;2022-10-16T13:43:15;4.77;;;2.53;;
16826;SDS011;8530;49.540;8.576;2022-10-16T13:45:53;9.03;;;3.40;;
16826;SDS011;8530;49.540;8.576;2022-10-16T13:48:21;4.73;;;4.10;;
16826;SDS011;8530;49.540;8.576;2022-10-16T13:50:57;4.00;;;3.10;;
16826;SDS011;8530;49.540;8.576;2022-10-16T13:53:29;7.50;;;2.80;;
16826;SDS011;8530;49.540;8.576;2022-10-16T13:55:57;3.80;;;2.50;;
16826;SDS011;8530;49.540;8.576;2022-10-16T13:58:26;8.73;;;3.17;;
16826;SDS011;8530;49.540;8.576;2022-10-16T14:00:56;9.57;;;3.00;;
16826;SDS011;8530;49.540;8.576;2022-10-16T14:03:24;6.00;;;3.57;;
16826;SDS011;8530;49.540;8.576;2022-10-16T14:05:52;3.80;;;3.20;;
16826;SDS011;8530;49.540;8.576;2022-10-16T14:08:21;4.37;;;2.50;;
16826;SDS011;8530;49.540;8.576;2022-10-16T14:10:50;4.50;;;2.40;;
16826;SDS011;8530;49.540;8.576;2022-10-16T14:13:20;2.70;;;2.00;;
16826;SDS011;8530;49.540;8.576;2022-10-16T14:15:55;4.80;;;2.10;;
16826;SDS011;8530;49.540;8.576;2022-10-16T14:18:24;7.60;;;2.27;;
16826;SDS011;8530;49.540;8.576;2022-10-16T14:20:53;2.97;;;2.60;;
16826;SDS011;8530;49.540;8.576;2022-10-16T14:23:22;2.53;;;2.23;;
16826;SDS011;8530;49.540;8.576;2022-10-16T14:25:54;3.40;;;3.03;;
16826;SDS011;8530;49.540;8.576;2022-10-16T14:28:32;3.27;;;2.70;;
16826;SDS011;8530;49.540;8.576;2022-10-16T14:31:01;4.80;;;2.60;;
16826;SDS011;8530;49.540;8.576;2022-10-16T14:33:45;13.83;;;3.13;;
16826;SDS011;8530;49.540;8.576;2022-10-16T14:36:13;5.07;;;3.53;;
16826;SDS011;8530;49.540;8.576;2022-10-16T14:38:42;5.63;;;3.40;;
16826;SDS011;8530;49.540;8.576;2022-10-16T14:41:14;6.93;;;5.20;;
16826;SDS011;8530;49.540;8.576;2022-10-16T14:43:42;6.93;;;5.63;;
16826;SDS011;8530;49.540;8.576;2022-10-16T14:46:11;4.97;;;4.47;;
16826;SDS011;8530;49.540;8.576;2022-10-16T14:48:40;6.60;;;3.87;;
16826;SDS011;8530;49.540;8.576;2022-10-16T14:51:08;4.93;;;3.40;;
16826;SDS011;8530;49.540;8.576;2022-10-16T14:53:39;5.97;;;3.47;;
16826;SDS011;8530;49.540;8.576;2022-10-16T14:56:06;4.03;;;2.87;;
16826;SDS011;8530;49.540;8.576;2022-10-16T14:58:35;3.00;;;2.40;;
16826;SDS011;8530;49.540;8.576;2022-10-16T15:01:01;6.07;;;3.27;;
16826;SDS011;8530;49.540;8.576;2022-10-16T15:03:33;3.87;;;2.90;;
16826;SDS011;8530;49.540;8.576;2022-10-16T15:05:59;4.67;;;2.97;;
16826;SDS011;8530;49.540;8.576;2022-10-16T15:08:26;3.63;;;2.67;;
16826;SDS011;8530;49.540;8.576;2022-10-16T15:10:53;4.70;;;2.30;;
16826;SDS011;8530;49.540;8.576;2022-10-16T15:13:20;3.00;;;2.10;;
16826;SDS011;8530;49.540;8.576;2022-10-16T15:15:47;4.73;;;3.03;;
16826;SDS011;8530;49.540;8.576;2022-10-16T15:18:14;3.70;;;2.70;;
16826;SDS011;8530;49.540;8.576;2022-10-16T15:20:47;5.20;;;2.77;;
16826;SDS011;8530;49.540;8.576;2022-10-16T15:23:16;3.87;;;3.30;;
16826;SDS011;8530;49.540;8.576;2022-10-16T15:25:44;3.63;;;2.33;;
16826;SDS011;8530;49.540;8.576;2022-10-16T15:28:14;3.40;;;2.50;;
16826;SDS011;8530;49.540;8.576;2022-10-16T15:30:42;3.63;;;2.30;;